Time;durP1;ratioP1;P1;durP2;ratioP2;P2;SDS_P1;SDS_P2;PMS_P1;PMS_P2;Temp;Humidity;BMP_temperature;BMP_pressure;BME280_temperature;BME280_humidity;BME280_pressure;Samples;Min_cycle;Max_cycle;Signal;HPM_P1;HPM_P2
2022/01/19 00:01:06;;;;;;;89.15;23.58;;;0.60;99.90;;;;;;5042669;28;20733;-77
2022/01/19 00:03:33;;;;;;;73.65;22.10;;;0.60;99.90;;;;;;5025658;28;20045;-75
2022/01/19 00:06:00;;;;;;;78.63;22.98;;;0.50;99.90;;;;;;5040224;28;20075;-75
2022/01/19 00:08:28;;;;;;;75.15;22.23;;;0.50;99.90;;;;;;5030019;28;20090;-74
2022/01/19 00:10:55;;;;;;;110.97;25.35;;;0.40;99.90;;;;;;5043771;28;20141;-75
2022/01/19 00:13:23;;;;;;;72.57;21.63;;;0.30;99.90;;;;;;5045207;28;20045;-75
2022/01/19 00:15:50;;;;;;;76.32;21.10;;;0.20;99.90;;;;;;5064196;28;20072;-74
2022/01/19 00:18:18;;;;;;;71.97;21.05;;;0.30;99.90;;;;;;5026194;28;20538;-75
2022/01/19 00:20:45;;;;;;;82.60;23.10;;;0.40;99.90;;;;;;5022937;28;20099;-75
2022/01/19 00:23:15;;;;;;;87.50;24.05;;;0.50;99.90;;;;;;5022739;28;20045;-74
2022/01/19 00:25:43;;;;;;;92.70;25.13;;;0.40;99.90;;;;;;5004838;28;20573;-75
2022/01/19 00:28:10;;;;;;;145.30;27.25;;;0.30;99.90;;;;;;5036900;28;20041;-74
2022/01/19 00:30:38;;;;;;;127.57;27.35;;;0.20;99.90;;;;;;5022991;28;20057;-75
2022/01/19 00:33:05;;;;;;;236.30;37.33;;;0.10;99.90;;;;;;5024174;28;20049;-74
2022/01/19 00:35:36;;;;;;;240.65;34.28;;;0.10;99.90;;;;;;5007901;28;20045;-74
2022/01/19 00:38:03;;;;;;;129.32;27.27;;;0.10;99.90;;;;;;5041537;28;20600;-75
2022/01/19 00:40:30;;;;;;;207.95;35.50;;;0.10;99.90;;;;;;5046062;22;20049;-74
2022/01/19 00:42:57;;;;;;;212.63;30.83;;;0.00;99.90;;;;;;5041469;28;20079;-74
2022/01/19 00:45:24;;;;;;;203.60;29.02;;;0.10;99.90;;;;;;5040533;28;20574;-74
2022/01/19 00:47:51;;;;;;;134.77;25.10;;;0.20;99.90;;;;;;5033945;28;20053;-73
2022/01/19 00:50:24;;;;;;;132.60;25.58;;;0.10;99.90;;;;;;5019581;28;20421;-73
2022/01/19 00:52:51;;;;;;;220.73;29.05;;;0.00;99.90;;;;;;5003366;28;20109;-74
2022/01/19 00:55:21;;;;;;;165.40;27.45;;;-0.10;99.90;;;;;;5002577;28;20053;-74
2022/01/19 00:57:48;;;;;;;71.75;20.08;;;-0.10;99.90;;;;;;5025593;28;20033;-74
2022/01/19 01:00:18;;;;;;;67.53;19.98;;;0.00;99.90;;;;;;5017103;28;20045;-72
2022/01/19 01:02:46;;;;;;;66.40;19.95;;;0.10;99.90;;;;;;5020412;28;20076;-73
2022/01/19 01:05:14;;;;;;;69.85;21.27;;;0.20;99.90;;;;;;5034984;28;20505;-73
2022/01/19 01:07:41;;;;;;;66.63;22.25;;;0.20;99.90;;;;;;5039951;28;20041;-72
2022/01/19 01:10:11;;;;;;;69.60;21.98;;;0.30;99.90;;;;;;5034657;28;20529;-74
2022/01/19 01:15:48;;;;;;;68.90;20.25;;;0.20;99.90;;;;;;5043076;28;20052;-73
2022/01/19 01:18:21;;;;;;;83.53;21.88;;;0.10;99.90;;;;;;5045112;28;20044;-74
2022/01/19 01:20:54;;;;;;;91.45;22.73;;;-0.10;99.90;;;;;;5036595;28;20061;-74
2022/01/19 01:23:25;;;;;;;108.32;26.08;;;-0.20;99.90;;;;;;5043014;28;20056;-73
2022/01/19 01:25:53;;;;;;;83.07;22.52;;;-0.30;99.90;;;;;;5042017;28;20049;-74
2022/01/19 01:28:20;;;;;;;92.80;25.63;;;-0.30;99.90;;;;;;5060202;28;20044;-72
2022/01/19 01:30:47;;;;;;;97.95;25.58;;;-0.20;99.90;;;;;;5030367;28;20040;-74
2022/01/19 01:33:14;;;;;;;72.97;24.17;;;-0.10;99.90;;;;;;5021950;28;20033;-72
2022/01/19 01:35:41;;;;;;;83.82;23.15;;;-0.10;99.90;;;;;;5022827;28;20688;-73
2022/01/19 01:38:08;;;;;;;67.07;20.33;;;-0.10;99.90;;;;;;5022959;28;20049;-73
2022/01/19 01:40:47;;;;;;;82.82;21.35;;;-0.20;99.90;;;;;;5030035;28;20048;-74
2022/01/19 01:43:16;;;;;;;70.72;22.42;;;-0.20;99.90;;;;;;5022971;28;20041;-73
2022/01/19 01:45:46;;;;;;;51.58;16.75;;;0.00;99.90;;;;;;5040461;28;20045;-73
2022/01/19 01:48:19;;;;;;;47.40;14.95;;;0.00;99.90;;;;;;5039111;28;20080;-72
2022/01/19 01:53:59;;;;;;;39.58;14.15;;;0.70;99.90;;;;;;5057031;28;20511;-73
2022/01/19 01:56:26;;;;;;;36.20;14.05;;;1.10;99.90;;;;;;5042182;28;20061;-73
2022/01/19 01:58:59;;;;;;;33.83;12.15;;;1.10;99.90;;;;;;5037724;28;20061;-73
2022/01/19 02:01:29;;;;;;;50.00;16.27;;;1.20;99.90;;;;;;5036588;28;20301;-74
2022/01/19 02:03:57;;;;;;;50.40;15.98;;;1.10;99.90;;;;;;5039937;28;20040;-72
2022/01/19 02:06:48;;;;;;;49.53;16.67;;;1.00;99.90;;;;;;5025873;28;20106;-73
2022/01/19 02:09:25;;;;;;;35.83;13.48;;;0.90;99.90;;;;;;5033777;28;20036;-73
2022/01/19 02:23:05;;;;;;;31.20;12.20;;;1.60;99.90;;;;;;5031481;28;20126;-72
2022/01/19 02:25:38;;;;;;;42.08;14.70;;;1.60;99.90;;;;;;5027051;28;20045;-73
2022/01/19 02:41:44;;;;;;;29.75;14.35;;;1.70;99.90;;;;;;5036576;28;20446;-73
2022/01/19 02:44:16;;;;;;;33.35;16.15;;;1.70;99.90;;;;;;5029621;28;20095;-73
2022/01/19 02:49:14;;;;;;;35.85;16.63;;;1.80;99.90;;;;;;5025907;28;20037;-73
2022/01/19 02:49:38;;;;;;;32.92;15.98;;;1.70;99.90;;;;;;5025946;28;20083;-72
2022/01/19 02:52:05;;;;;;;38.58;17.17;;;1.70;99.90;;;;;;5033313;28;20779;-73
2022/01/19 02:54:33;;;;;;;34.55;18.35;;;1.70;99.90;;;;;;5040849;28;20045;-72
2022/01/19 02:57:02;;;;;;;31.17;15.85;;;1.60;99.90;;;;;;5025386;28;20142;-73
2022/01/19 03:10:41;;;;;;;41.55;19.13;;;1.50;99.90;;;;;;5048810;28;20071;-73
2022/01/19 03:13:08;;;;;;;36.10;16.48;;;1.50;99.90;;;;;;5041404;28;20049;-72
2022/01/19 03:15:35;;;;;;;35.83;17.77;;;1.50;99.90;;;;;;5021715;28;20077;-72
2022/01/19 03:18:02;;;;;;;38.70;20.00;;;1.50;99.90;;;;;;5025072;28;20408;-72
2022/01/19 03:20:30;;;;;;;41.22;19.00;;;1.50;99.90;;;;;;5039689;28;20431;-73
2022/01/19 03:25:42;;;;;;;;;;;1.50;99.90;;;;;;5007922;28;20049;-73
2022/01/19 03:28:09;;;;;;;39.08;15.48;;;1.50;99.90;;;;;;5040911;28;20279;-73
2022/01/19 03:30:36;;;;;;;32.85;16.75;;;1.50;99.90;;;;;;5024680;28;20037;-72
2022/01/19 03:33:03;;;;;;;33.00;17.48;;;1.50;99.90;;;;;;5024109;28;20101;-72
2022/01/19 03:35:30;;;;;;;30.98;16.42;;;1.50;99.90;;;;;;5024790;28;20045;-74
2022/01/19 03:37:57;;;;;;;33.92;17.15;;;1.50;99.90;;;;;;5025337;28;20053;-76
2022/01/19 03:40:24;;;;;;;38.17;17.67;;;1.50;99.90;;;;;;5048056;28;20525;-73
2022/01/19 03:42:51;;;;;;;39.53;17.80;;;1.50;99.90;;;;;;5062367;28;20048;-74
2022/01/19 03:45:26;;;;;;;23.35;13.75;;;1.40;99.90;;;;;;5058308;28;20045;-74
2022/01/19 03:48:07;;;;;;;35.60;17.85;;;1.40;99.90;;;;;;5041761;28;20511;-72
2022/01/19 03:50:37;;;;;;;37.25;17.52;;;1.40;99.90;;;;;;5032064;28;20086;-72
2022/01/19 03:53:03;;;;;;;36.83;19.23;;;1.40;99.90;;;;;;5045221;28;20059;-72
2022/01/19 03:55:32;;;;;;;32.67;17.80;;;1.40;99.90;;;;;;5044740;28;20102;-72
2022/01/19 03:57:58;;;;;;;31.15;16.73;;;1.40;99.90;;;;;;5044782;28;20052;-72
2022/01/19 04:00:26;;;;;;;32.80;18.20;;;1.40;99.90;;;;;;5028063;28;20048;-72
2022/01/19 04:02:52;;;;;;;40.25;19.08;;;1.50;99.90;;;;;;5042903;28;20536;-73
2022/01/19 04:05:39;;;;;;;38.70;18.95;;;1.50;99.90;;;;;;5041099;28;20114;-72
2022/01/19 04:08:06;;;;;;;34.45;18.02;;;1.50;99.90;;;;;;5024091;28;20065;-72
2022/01/19 04:10:33;;;;;;;38.47;19.30;;;1.60;99.90;;;;;;5038374;28;20102;-73
2022/01/19 04:13:21;;;;;;;34.42;19.15;;;1.50;99.90;;;;;;5023828;28;20092;-72
2022/01/19 04:15:49;;;;;;;36.67;17.67;;;1.50;99.90;;;;;;5023352;28;20276;-73
2022/01/19 04:18:17;;;;;;;33.80;16.40;;;1.60;99.90;;;;;;5024125;28;20115;-73
2022/01/19 04:20:48;;;;;;;33.15;16.50;;;1.60;99.90;;;;;;5027087;28;20102;-72
2022/01/19 04:23:18;;;;;;;32.53;16.83;;;1.60;99.90;;;;;;5061975;28;20078;-73
2022/01/19 04:25:45;;;;;;;35.88;17.63;;;1.60;99.90;;;;;;5025342;28;20044;-72
2022/01/19 04:28:14;;;;;;;40.92;17.27;;;1.60;99.90;;;;;;5043469;28;20056;-72
2022/01/19 04:30:45;;;;;;;33.53;18.25;;;1.70;99.90;;;;;;5024074;28;20467;-73
2022/01/19 04:33:17;;;;;;;37.10;19.05;;;1.70;99.90;;;;;;5023116;28;20061;-74
2022/01/19 04:35:49;;;;;;;42.65;22.05;;;1.70;99.90;;;;;;5007642;28;20106;-75
2022/01/19 04:39:05;;;;;;;41.20;21.90;;;1.70;99.90;;;;;;5023969;28;20502;-75
2022/01/19 05:01:35;;;;;;;39.63;19.27;;;1.70;99.90;;;;;;5043694;28;20105;-75
2022/01/19 05:03:39;;;;;;;34.80;17.00;;;1.80;99.90;;;;;;5041199;28;20064;-74
2022/01/19 05:06:14;;;;;;;32.67;17.70;;;1.80;99.90;;;;;;5022951;28;20056;-72
2022/01/19 05:14:08;;;;;;;30.70;17.35;;;1.80;99.90;;;;;;5024043;28;20076;-71
2022/01/19 05:16:36;;;;;;;28.75;15.85;;;1.80;99.90;;;;;;5022906;28;20041;-71
2022/01/19 05:19:03;;;;;;;34.08;17.50;;;1.80;99.90;;;;;;5006410;28;20167;-72
2022/01/19 05:21:32;;;;;;;32.30;18.50;;;1.80;99.90;;;;;;5042900;28;20052;-71
2022/01/19 05:24:10;;;;;;;30.27;17.63;;;1.80;99.90;;;;;;5062294;28;20217;-74
2022/01/19 05:26:41;;;;;;;32.75;18.13;;;1.90;99.90;;;;;;5042944;28;20507;-75
2022/01/19 05:29:10;;;;;;;31.33;16.73;;;1.90;99.90;;;;;;5040037;28;20517;-74
2022/01/19 05:31:38;;;;;;;30.85;17.65;;;1.90;99.90;;;;;;5021436;28;20503;-74
2022/01/19 05:34:05;;;;;;;26.88;16.33;;;1.90;99.90;;;;;;5023332;28;20179;-75
2022/01/19 05:36:38;;;;;;;27.60;15.88;;;1.90;99.90;;;;;;5023205;28;20139;-74
2022/01/19 05:39:25;;;;;;;28.15;17.75;;;1.90;99.90;;;;;;5037010;28;20434;-75
2022/01/19 05:42:03;;;;;;;27.42;15.35;;;1.90;99.90;;;;;;5048829;28;20060;-74
2022/01/19 05:44:31;;;;;;;26.65;17.05;;;1.90;99.90;;;;;;5042889;28;20057;-74
2022/01/19 05:46:58;;;;;;;25.48;15.75;;;2.00;99.90;;;;;;5041884;28;20040;-74
2022/01/19 05:49:25;;;;;;;24.40;14.85;;;2.00;99.90;;;;;;5042891;28;20067;-74
2022/01/19 05:51:52;;;;;;;29.38;15.90;;;1.90;99.90;;;;;;5039978;28;20040;-74
2022/01/19 05:54:20;;;;;;;26.65;16.52;;;1.90;99.90;;;;;;5042122;28;20048;-74
2022/01/19 05:56:47;;;;;;;30.30;16.42;;;2.00;99.90;;;;;;5059606;28;20095;-74
2022/01/19 05:59:23;;;;;;;30.00;16.98;;;2.00;99.90;;;;;;5034221;28;20052;-74
2022/01/19 06:01:50;;;;;;;27.23;16.33;;;2.00;99.90;;;;;;5022199;28;20048;-74
2022/01/19 06:04:19;;;;;;;27.27;16.50;;;1.90;99.90;;;;;;5023091;28;20458;-75
2022/01/19 06:07:06;;;;;;;34.75;18.80;;;1.90;99.90;;;;;;5038455;28;20359;-75
2022/01/19 06:12:13;;;;;;;25.73;15.63;;;1.90;99.90;;;;;;5055336;28;20549;-74
2022/01/19 06:14:43;;;;;;;25.05;14.25;;;1.90;99.90;;;;;;5042754;28;20067;-72
2022/01/19 06:17:13;;;;;;;26.67;15.20;;;1.80;99.90;;;;;;5042674;28;20052;-71
2022/01/19 06:19:40;;;;;;;24.95;14.93;;;1.80;99.90;;;;;;5042605;28;20534;-72
2022/01/19 06:22:09;;;;;;;27.17;16.10;;;1.90;99.90;;;;;;5041444;28;20132;-72
2022/01/19 06:24:37;;;;;;;24.25;14.90;;;1.90;99.90;;;;;;5042423;28;20079;-72
2022/01/19 06:27:05;;;;;;;26.83;15.02;;;1.80;99.90;;;;;;5040331;28;20432;-71
2022/01/19 06:29:32;;;;;;;24.25;13.95;;;1.80;99.90;;;;;;5032063;28;20037;-72
2022/01/19 06:32:00;;;;;;;25.15;15.68;;;1.90;99.90;;;;;;5024674;28;20068;-72
2022/01/19 06:34:27;;;;;;;30.35;15.00;;;1.80;99.90;;;;;;5041500;28;20049;-72
2022/01/19 06:37:23;;;;;;;;;;;1.80;99.90;;;;;;5041333;28;20057;-72
2022/01/19 06:40:25;;;;;;;24.98;14.80;;;1.80;99.90;;;;;;5045385;22;19975;-74
2022/01/19 06:42:54;;;;;;;22.40;14.15;;;1.80;99.90;;;;;;5040002;28;20338;-74
2022/01/19 06:45:22;;;;;;;24.58;16.25;;;1.80;99.90;;;;;;5021476;28;20551;-74
2022/01/19 06:47:50;;;;;;;28.65;16.25;;;1.80;99.90;;;;;;5022697;28;20515;-74
2022/01/19 06:50:19;;;;;;;25.70;15.25;;;1.80;99.90;;;;;;5023573;28;20056;-74
2022/01/19 06:52:47;;;;;;;29.20;16.92;;;1.80;99.90;;;;;;5025949;28;20047;-74
2022/01/19 06:55:15;;;;;;;28.23;16.58;;;1.90;99.90;;;;;;5025808;28;20346;-74
2022/01/19 06:57:44;;;;;;;26.00;16.02;;;1.90;99.90;;;;;;5025148;28;20073;-74
2022/01/19 07:00:30;;;;;;;27.20;15.77;;;1.90;99.90;;;;;;5007776;28;20511;-75
2022/01/19 07:03:16;;;;;;;27.83;16.17;;;1.90;99.90;;;;;;5011506;28;20064;-74
2022/01/19 07:05:47;;;;;;;29.17;16.73;;;1.90;99.90;;;;;;5038470;28;20053;-75
2022/01/19 07:08:43;;;;;;;31.13;18.60;;;1.90;99.90;;;;;;4994769;28;20156;-74
2022/01/19 07:11:11;;;;;;;25.20;16.38;;;2.10;99.90;;;;;;5003944;28;20466;-74
2022/01/19 07:13:38;;;;;;;37.83;18.73;;;2.00;99.90;;;;;;5013626;28;20060;-71
2022/01/19 07:16:04;;;;;;;23.20;14.95;;;2.10;99.90;;;;;;5010992;28;20088;-72
2022/01/19 07:18:32;;;;;;;24.08;15.93;;;2.10;99.90;;;;;;5008106;28;20049;-73
2022/01/19 07:20:59;;;;;;;20.33;14.13;;;2.00;99.90;;;;;;5008901;28;20361;-73
2022/01/19 07:23:44;;;;;;;20.48;14.10;;;2.00;99.90;;;;;;5008457;28;20104;-72
2022/01/19 07:26:11;;;;;;;22.55;15.70;;;2.00;99.90;;;;;;4990616;28;20049;-72
2022/01/19 07:28:38;;;;;;;22.73;15.02;;;2.10;99.90;;;;;;4988727;28;20057;-72
2022/01/19 07:31:06;;;;;;;24.73;14.48;;;2.10;99.90;;;;;;5028029;28;20049;-72
2022/01/19 07:33:33;;;;;;;23.27;15.48;;;2.10;99.90;;;;;;5023068;28;20037;-71
2022/01/19 07:35:59;;;;;;;23.73;15.45;;;2.10;99.90;;;;;;5004515;28;20067;-72
2022/01/19 07:38:26;;;;;;;21.83;15.63;;;2.10;99.90;;;;;;4988146;28;20049;-72
2022/01/19 07:40:54;;;;;;;27.77;15.95;;;2.10;99.90;;;;;;5004402;28;20419;-72
2022/01/19 07:43:22;;;;;;;21.75;15.73;;;2.10;99.90;;;;;;4989233;28;20041;-73
2022/01/19 07:46:27;;;;;;;19.02;13.25;;;2.10;99.90;;;;;;5008766;28;20099;-72
2022/01/19 07:49:05;;;;;;;23.17;15.70;;;2.10;99.90;;;;;;5004489;28;20049;-73
2022/01/19 07:51:38;;;;;;;20.73;16.05;;;2.10;99.90;;;;;;5003903;28;20049;-73
2022/01/19 07:54:22;;;;;;;23.00;15.77;;;2.20;99.90;;;;;;5006295;28;20046;-73
2022/01/19 07:56:55;;;;;;;23.50;15.60;;;2.20;99.90;;;;;;5042009;28;20138;-73
2022/01/19 07:59:45;;;;;;;22.65;16.60;;;2.20;99.90;;;;;;5020721;28;20071;-74
2022/01/19 08:02:14;;;;;;;22.88;16.00;;;2.30;99.90;;;;;;4998765;28;20060;-74
2022/01/19 08:04:59;;;;;;;23.52;17.13;;;2.20;99.90;;;;;;5042287;28;20060;-71
2022/01/19 08:07:29;;;;;;;20.38;16.10;;;2.20;99.90;;;;;;5003936;28;20041;-74
2022/01/19 08:09:55;;;;;;;26.80;18.13;;;2.20;99.90;;;;;;5004368;28;20091;-74
2022/01/19 08:12:23;;;;;;;21.30;16.42;;;2.20;99.90;;;;;;5003961;28;20045;-74
2022/01/19 08:14:50;;;;;;;20.30;15.70;;;2.20;99.90;;;;;;5004538;28;20554;-71
2022/01/19 08:17:26;;;;;;;21.98;17.25;;;2.20;99.90;;;;;;5023339;28;20080;-74
2022/01/19 08:19:54;;;;;;;24.45;17.20;;;2.20;99.90;;;;;;5024023;28;20095;-71
2022/01/19 08:22:21;;;;;;;24.17;18.63;;;2.30;99.90;;;;;;5023400;28;20044;-73
2022/01/19 08:25:06;;;;;;;;;;;2.30;99.90;;;;;;5042496;28;20044;-73
2022/01/19 08:27:35;;;;;;;21.70;15.32;;;2.30;99.90;;;;;;5000822;28;19925;-74
2022/01/19 08:30:07;;;;;;;27.48;19.25;;;2.40;99.90;;;;;;5002412;28;20280;-72
2022/01/19 08:32:35;;;;;;;23.13;15.55;;;2.40;99.90;;;;;;5012508;28;20072;-72
2022/01/19 08:35:24;;;;;;;30.48;19.95;;;2.40;99.90;;;;;;5018216;28;20040;-72
2022/01/19 08:38:10;;;;;;;24.48;17.50;;;2.40;99.90;;;;;;5007045;28;20522;-72
2022/01/19 08:40:46;;;;;;;23.45;18.13;;;2.40;99.90;;;;;;5003113;28;20557;-73
2022/01/19 08:43:17;;;;;;;27.35;19.52;;;2.50;99.90;;;;;;5004714;28;20518;-72
2022/01/19 08:45:44;;;;;;;20.88;16.50;;;2.50;99.90;;;;;;5003926;28;20057;-72
2022/01/19 08:48:13;;;;;;;24.65;16.98;;;2.60;99.90;;;;;;5022497;28;20118;-72
2022/01/19 08:50:49;;;;;;;20.88;16.58;;;2.60;99.90;;;;;;5008067;28;20060;-72
2022/01/19 08:53:28;;;;;;;23.65;18.13;;;2.60;99.90;;;;;;5023844;28;20060;-72
2022/01/19 08:56:22;;;;;;;22.38;17.08;;;2.60;99.90;;;;;;5020921;28;20061;-71
2022/01/19 08:58:49;;;;;;;27.30;17.50;;;2.60;99.90;;;;;;5020880;28;20459;-72
2022/01/19 09:01:16;;;;;;;27.63;18.08;;;2.50;99.90;;;;;;5003039;28;20039;-73
2022/01/19 09:03:43;;;;;;;29.30;17.60;;;2.40;99.90;;;;;;5003933;28;20435;-72
2022/01/19 09:06:12;;;;;;;30.75;18.75;;;2.30;99.90;;;;;;5003464;28;20049;-72
2022/01/19 09:08:39;;;;;;;26.60;17.88;;;2.30;99.90;;;;;;4986175;28;20144;-72
2022/01/19 09:11:06;;;;;;;29.10;16.98;;;2.30;99.90;;;;;;5019065;28;20059;-72
2022/01/19 09:13:34;;;;;;;28.23;17.02;;;2.30;99.90;;;;;;5020547;28;20076;-72
2022/01/19 09:16:00;;;;;;;28.25;19.00;;;2.20;99.90;;;;;;5002392;28;20064;-73
2022/01/19 09:18:27;;;;;;;28.67;18.08;;;2.20;99.90;;;;;;5001876;28;20085;-72
2022/01/19 09:20:54;;;;;;;30.73;17.73;;;2.30;99.90;;;;;;5011982;28;20060;-73
2022/01/19 09:23:21;;;;;;;41.28;24.63;;;2.40;99.90;;;;;;5040789;28;20263;-72
2022/01/19 09:25:48;;;;;;;34.10;21.90;;;2.40;99.90;;;;;;5024513;28;20079;-72
2022/01/19 09:28:14;;;;;;;28.77;18.75;;;2.40;99.90;;;;;;5020462;28;20057;-72
2022/01/19 09:30:41;;;;;;;32.70;20.52;;;2.30;99.90;;;;;;5024306;28;20362;-73
2022/01/19 09:33:10;;;;;;;29.08;18.17;;;2.30;99.90;;;;;;5007374;28;20124;-72
2022/01/19 09:36:04;;;;;;;26.17;16.60;;;2.40;99.90;;;;;;5000769;28;20061;-72
2022/01/19 09:38:35;;;;;;;22.83;15.52;;;2.40;99.90;;;;;;5002697;28;20045;-72
2022/01/19 09:41:03;;;;;;;25.23;15.82;;;2.40;99.90;;;;;;5001827;28;20261;-72
2022/01/19 09:43:30;;;;;;;22.75;14.93;;;2.40;99.90;;;;;;5003064;28;20107;-72
2022/01/19 09:45:59;;;;;;;23.60;14.50;;;2.30;99.90;;;;;;4998966;28;20046;-72
2022/01/19 09:48:28;;;;;;;25.35;16.92;;;2.30;99.90;;;;;;5000552;28;20669;-72
2022/01/19 09:50:56;;;;;;;23.48;15.57;;;2.30;99.90;;;;;;4982028;28;20058;-72
2022/01/19 09:53:24;;;;;;;22.88;14.95;;;2.30;99.90;;;;;;4983352;28;20174;-72
2022/01/19 09:55:50;;;;;;;24.25;15.82;;;2.40;99.90;;;;;;5000259;28;20150;-72
2022/01/19 09:58:22;;;;;;;22.95;15.88;;;2.40;99.90;;;;;;4982046;28;20508;-72
2022/01/19 10:00:52;;;;;;;22.50;15.30;;;2.50;99.90;;;;;;5002555;28;20111;-72
2022/01/19 10:03:22;;;;;;;23.55;15.63;;;2.50;99.90;;;;;;5010718;28;20053;-72
2022/01/19 10:05:58;;;;;;;20.17;14.98;;;2.50;99.90;;;;;;4984853;28;20049;-72
2022/01/19 10:08:31;;;;;;;20.70;14.40;;;2.60;99.90;;;;;;5032074;28;20045;-72
2022/01/19 10:11:12;;;;;;;24.95;16.42;;;2.60;99.90;;;;;;4997725;28;20041;-73
2022/01/19 10:17:00;;;;;;;23.38;15.45;;;2.50;99.90;;;;;;5019652;28;20065;-72
2022/01/19 10:19:28;;;;;;;20.27;14.85;;;2.50;99.90;;;;;;5018776;28;20084;-72
2022/01/19 10:22:02;;;;;;;20.52;15.30;;;2.50;99.90;;;;;;5002056;28;20173;-74
2022/01/19 10:24:41;;;;;;;19.77;14.52;;;2.50;99.90;;;;;;5022071;28;20309;-72
2022/01/19 10:27:42;;;;;;;26.23;18.20;;;2.50;99.90;;;;;;5024512;28;20075;-72
2022/01/19 10:30:09;;;;;;;23.50;16.67;;;2.50;99.90;;;;;;5034415;28;20045;-72
2022/01/19 10:32:42;;;;;;;21.40;14.85;;;2.60;99.90;;;;;;4996980;28;20045;-73
2022/01/19 10:35:23;;;;;;;21.02;15.32;;;2.50;99.90;;;;;;5025289;28;20357;-74
2022/01/19 10:38:24;;;;;;;21.02;14.98;;;2.50;99.90;;;;;;5037663;28;20551;-73
2022/01/19 10:40:54;;;;;;;22.67;17.50;;;2.60;99.90;;;;;;4998046;28;20144;-74
2022/01/19 10:43:28;;;;;;;18.83;15.50;;;2.60;99.90;;;;;;5005553;28;20165;-72
2022/01/19 10:45:57;;;;;;;23.52;16.75;;;2.60;99.90;;;;;;5006761;28;20133;-72
2022/01/19 10:48:39;;;;;;;20.05;16.00;;;2.60;99.90;;;;;;5023351;28;20547;-72
2022/01/19 10:51:15;;;;;;;22.60;15.95;;;2.70;99.90;;;;;;5042641;28;20041;-72
2022/01/19 10:53:45;;;;;;;21.38;17.58;;;2.70;99.90;;;;;;5024728;28;20569;-73
2022/01/19 10:56:28;;;;;;;19.65;15.63;;;2.70;99.90;;;;;;5023982;28;20199;-73
2022/01/19 10:59:05;;;;;;;25.65;18.20;;;2.70;99.90;;;;;;5004873;28;20072;-72
2022/01/19 11:01:56;;;;;;;20.23;16.23;;;2.70;99.90;;;;;;5024047;28;20049;-72
2022/01/19 11:04:29;;;;;;;21.58;15.70;;;2.80;99.90;;;;;;4984474;28;20332;-72
2022/01/19 11:07:08;;;;;;;20.27;15.93;;;2.80;99.90;;;;;;5023660;28;20045;-72
2022/01/19 11:09:56;;;;;;;20.55;13.70;;;2.80;99.90;;;;;;5021955;28;20044;-72
2022/01/19 11:12:27;;;;;;;19.50;16.48;;;2.80;99.90;;;;;;5009234;28;20067;-72
2022/01/19 11:14:54;;;;;;;19.98;15.38;;;2.80;99.90;;;;;;5008727;28;20467;-72
2022/01/19 11:17:36;;;;;;;18.48;15.45;;;2.80;99.90;;;;;;5009124;28;20308;-72
2022/01/19 11:20:08;;;;;;;15.60;13.13;;;2.80;99.90;;;;;;5042265;28;20135;-72
2022/01/19 11:23:01;;;;;;;19.15;15.70;;;2.80;99.90;;;;;;5042473;28;20084;-72
2022/01/19 11:25:36;;;;;;;16.15;14.15;;;2.80;99.90;;;;;;5041699;28;20236;-72
2022/01/19 11:28:29;;;;;;;21.48;15.18;;;2.70;99.90;;;;;;5041057;28;20143;-72
2022/01/19 11:30:56;;;;;;;21.30;15.68;;;2.80;99.90;;;;;;5022239;28;20061;-73
2022/01/19 11:33:26;;;;;;;21.60;16.48;;;2.80;99.90;;;;;;5034809;28;20504;-72
2022/01/19 11:35:58;;;;;;;20.08;16.23;;;2.80;99.90;;;;;;5041918;28;20392;-73
2022/01/19 11:38:39;;;;;;;25.33;17.40;;;2.80;99.90;;;;;;5016434;28;20081;-73
2022/01/19 11:41:08;;;;;;;21.05;16.80;;;2.80;99.90;;;;;;5020685;28;20037;-74
2022/01/19 11:43:38;;;;;;;22.65;16.33;;;2.80;99.90;;;;;;5044569;28;20136;-72
2022/01/19 11:46:24;;;;;;;21.17;16.27;;;2.80;99.90;;;;;;5041182;28;20048;-72
2022/01/19 11:48:51;;;;;;;24.65;17.45;;;2.80;99.90;;;;;;5024246;28;20049;-73
2022/01/19 11:51:38;;;;;;;23.58;17.80;;;2.80;99.90;;;;;;5041674;28;20476;-73
2022/01/19 11:54:28;;;;;;;29.35;18.60;;;2.70;99.90;;;;;;5002190;28;20359;-73
2022/01/19 11:57:04;;;;;;;27.08;18.75;;;2.80;99.90;;;;;;5039774;28;20534;-73
2022/01/19 11:59:47;;;;;;;27.13;17.33;;;2.80;99.90;;;;;;5014160;28;20443;-73
2022/01/19 12:02:37;;;;;;;27.70;19.50;;;2.80;99.90;;;;;;5032259;28;20045;-73
2022/01/19 12:05:27;;;;;;;27.55;20.17;;;2.80;99.90;;;;;;5040495;28;20049;-73
2022/01/19 12:07:57;;;;;;;31.02;21.88;;;2.80;99.90;;;;;;5020961;28;20132;-73
2022/01/19 12:10:31;;;;;;;25.88;19.42;;;2.80;99.90;;;;;;5020501;28;20041;-74
2022/01/19 12:13:40;;;;;;;24.60;18.80;;;2.80;99.90;;;;;;5015897;28;20106;-75
2022/01/19 12:19:07;;;;;;;30.92;18.92;;;2.80;99.90;;;;;;4965349;28;20124;-72
2022/01/19 12:21:34;;;;;;;29.90;19.58;;;2.70;99.90;;;;;;5020958;28;20099;-75
2022/01/19 12:24:32;;;;;;;30.17;19.65;;;2.70;99.90;;;;;;5023886;28;20041;-75
2022/01/19 12:27:03;;;;;;;31.80;20.75;;;2.70;99.90;;;;;;5003017;28;20053;-75
2022/01/19 12:29:39;;;;;;;28.45;19.40;;;2.70;99.90;;;;;;4977042;28;20104;-75
2022/01/19 12:32:32;;;;;;;29.23;21.30;;;2.70;99.90;;;;;;5013643;28;20478;-74
2022/01/19 12:35:11;;;;;;;37.33;22.45;;;2.70;99.90;;;;;;5005139;28;20377;-74
2022/01/19 12:37:51;;;;;;;26.45;17.27;;;2.70;99.90;;;;;;5002409;28;20529;-75
2022/01/19 12:40:18;;;;;;;33.05;20.67;;;2.70;99.90;;;;;;5018025;28;20452;-74
2022/01/19 12:42:51;;;;;;;32.38;21.95;;;2.70;99.90;;;;;;4981889;22;20049;-70
2022/01/19 12:45:27;;;;;;;36.55;23.48;;;2.70;99.90;;;;;;5019697;28;20076;-70
2022/01/19 12:48:01;;;;;;;27.75;19.48;;;2.70;99.90;;;;;;5020682;28;20069;-70
2022/01/19 12:50:38;;;;;;;30.25;21.15;;;2.70;99.90;;;;;;5021006;28;20045;-71
2022/01/19 12:53:13;;;;;;;30.55;19.50;;;2.70;99.90;;;;;;5040153;28;20530;-71
2022/01/19 12:55:41;;;;;;;;;;;2.70;99.90;;;;;;5019688;28;20079;-71
2022/01/19 12:58:15;;;;;;;35.42;20.88;;;2.70;99.90;;;;;;5021599;28;19980;-70
2022/01/19 13:00:45;;;;;;;31.60;20.35;;;2.70;99.90;;;;;;5040459;28;20079;-71
2022/01/19 13:03:19;;;;;;;33.13;22.45;;;2.70;99.90;;;;;;5039527;28;20045;-70
2022/01/19 13:06:03;;;;;;;34.05;23.30;;;2.70;99.90;;;;;;5047572;28;20510;-70
2022/01/19 13:08:33;;;;;;;30.75;20.38;;;2.70;99.90;;;;;;5061976;28;20053;-72
2022/01/19 13:11:06;;;;;;;37.55;25.35;;;2.60;99.90;;;;;;5070835;28;20627;-72
2022/01/19 13:13:53;;;;;;;39.72;25.80;;;2.70;99.90;;;;;;5063996;28;20461;-73
2022/01/19 13:16:45;;;;;;;39.72;26.02;;;2.80;99.90;;;;;;5043473;28;20448;-73
2022/01/19 13:19:17;;;;;;;43.22;25.70;;;2.80;99.90;;;;;;5045077;28;20328;-72
2022/01/19 13:21:57;;;;;;;48.40;29.88;;;2.60;99.90;;;;;;5022484;28;20049;-72
2022/01/19 13:24:26;;;;;;;49.92;29.65;;;2.60;99.90;;;;;;5040537;28;20259;-73
2022/01/19 13:27:00;;;;;;;49.38;28.73;;;2.60;99.90;;;;;;5037866;28;20048;-72
2022/01/19 13:29:36;;;;;;;56.17;32.33;;;2.60;99.90;;;;;;5045114;28;20078;-72
2022/01/19 13:32:08;;;;;;;59.47;32.90;;;2.50;99.90;;;;;;5050362;28;20148;-73
2022/01/19 13:34:59;;;;;;;53.42;31.08;;;2.50;99.90;;;;;;5055492;28;20194;-73
2022/01/19 13:37:46;;;;;;;47.85;27.27;;;2.60;99.90;;;;;;5045935;28;20049;-72
2022/01/19 13:40:19;;;;;;;51.65;31.63;;;2.60;99.90;;;;;;5070788;28;20068;-72
2022/01/19 13:43:08;;;;;;;55.05;32.65;;;2.50;99.90;;;;;;5064656;28;20493;-73
2022/01/19 13:48:28;;;;;;;45.17;27.63;;;2.60;99.90;;;;;;5040368;28;20191;-72
2022/01/19 13:51:11;;;;;;;50.92;30.33;;;2.60;99.90;;;;;;5038497;28;20687;-72
2022/01/19 13:53:40;;;;;;;48.88;30.35;;;2.50;99.90;;;;;;5038893;28;20049;-71
2022/01/19 13:56:10;;;;;;;52.30;29.40;;;2.60;99.90;;;;;;5052246;28;20064;-72
2022/01/19 13:58:50;;;;;;;40.17;23.63;;;2.60;99.90;;;;;;5026166;28;20083;-73
2022/01/19 14:01:23;;;;;;;44.75;27.08;;;2.50;99.90;;;;;;5063314;28;20278;-73
2022/01/19 14:03:57;;;;;;;43.70;25.60;;;2.50;99.90;;;;;;5041534;28;20052;-72
2022/01/19 14:06:29;;;;;;;49.72;26.88;;;2.50;99.90;;;;;;5045055;28;20224;-72
2022/01/19 14:09:08;;;;;;;40.67;22.58;;;2.50;99.90;;;;;;5050825;28;20112;-73
2022/01/19 14:11:37;;;;;;;52.50;29.75;;;2.50;99.90;;;;;;5068184;28;20420;-72
2022/01/19 14:14:10;;;;;;;55.45;33.15;;;2.50;99.90;;;;;;5026228;28;20068;-73
2022/01/19 14:16:43;;;;;;;49.97;28.17;;;2.60;99.90;;;;;;5041900;28;20099;-73
2022/01/19 14:19:28;;;;;;;57.05;31.23;;;2.60;99.90;;;;;;5042601;28;20126;-71
2022/01/19 14:22:03;;;;;;;53.67;28.75;;;2.60;99.90;;;;;;5041747;28;20048;-72
2022/01/19 14:24:44;;;;;;;41.95;25.40;;;2.60;99.90;;;;;;5043900;28;20515;-72
2022/01/19 14:27:41;;;;;;;54.85;29.17;;;2.60;99.90;;;;;;5056713;28;20606;-72
2022/01/19 14:30:14;;;;;;;47.67;27.55;;;2.60;99.90;;;;;;5055889;28;20052;-72